Time;durP1;ratioP1;P1;durP2;ratioP2;P2;SDS_P1;SDS_P2;PMS_P1;PMS_P2;Temp;Humidity;BMP_temperature;BMP_pressure;BME280_temperature;BME280_humidity;BME280_pressure;Samples;Min_cycle;Max_cycle;Signal;HPM_P1;HPM_P2
2022/11/28 00:01:29;;;;;;;7.50;4.22;;;10.90;99.90;;;;;;5059489;28;20056;-73
2022/11/28 00:03:58;;;;;;;5.90;4.10;;;10.80;99.90;;;;;;5076732;28;20029;-75
2022/11/28 00:06:26;;;;;;;7.80;4.95;;;10.80;99.90;;;;;;5051717;28;20052;-73
2022/11/28 00:08:56;;;;;;;6.88;4.63;;;10.80;99.90;;;;;;5050679;28;20483;-74
2022/11/28 00:11:24;;;;;;;6.35;4.65;;;10.70;99.90;;;;;;5059841;28;20394;-74
2022/11/28 00:13:51;;;;;;;5.22;3.35;;;10.70;99.90;;;;;;5055776;28;20482;-75
2022/11/28 00:16:20;;;;;;;7.38;4.70;;;10.70;99.90;;;;;;5048496;28;20072;-74
2022/11/28 00:18:50;;;;;;;6.82;4.13;;;10.70;99.90;;;;;;5048685;28;20510;-74
2022/11/28 00:21:18;;;;;;;6.15;4.28;;;10.70;99.90;;;;;;5027424;28;20110;-75
2022/11/28 00:23:46;;;;;;;9.27;6.43;;;10.70;99.90;;;;;;5030592;28;20474;-74
2022/11/28 00:26:23;;;;;;;9.40;5.43;;;10.60;99.90;;;;;;5031418;28;20099;-74
2022/11/28 00:28:51;;;;;;;8.13;5.68;;;10.60;99.90;;;;;;5029371;28;20048;-75
2022/11/28 00:31:22;;;;;;;9.27;6.50;;;10.50;99.90;;;;;;5061068;28;20053;-74
2022/11/28 00:33:51;;;;;;;11.43;6.72;;;10.50;99.90;;;;;;5064476;28;20446;-73
2022/11/28 00:36:19;;;;;;;11.32;6.82;;;10.50;99.90;;;;;;5068104;28;20052;-73
2022/11/28 00:38:48;;;;;;;11.68;8.00;;;10.40;99.90;;;;;;5027577;28;20697;-73
2022/11/28 00:41:27;;;;;;;11.80;7.00;;;10.30;99.90;;;;;;5073673;28;20127;-73
2022/11/28 00:43:54;;;;;;;9.75;6.75;;;10.30;99.90;;;;;;5054298;28;20503;-74
2022/11/28 00:46:22;;;;;;;12.68;7.38;;;10.30;99.90;;;;;;5070790;28;20040;-74
2022/11/28 00:48:50;;;;;;;10.77;6.45;;;10.20;99.90;;;;;;5049876;28;20044;-73
2022/11/28 00:51:25;;;;;;;10.00;5.28;;;10.10;99.90;;;;;;5062961;28;20056;-72
2022/11/28 00:53:54;;;;;;;7.28;5.55;;;10.20;99.90;;;;;;5044556;28;20516;-73
2022/11/28 00:56:24;;;;;;;10.02;5.32;;;10.00;99.90;;;;;;5057515;28;20060;-73
2022/11/28 00:58:52;;;;;;;10.93;6.18;;;10.00;99.90;;;;;;5039185;28;20494;-73
2022/11/28 01:01:25;;;;;;;6.60;4.53;;;10.00;99.90;;;;;;5069194;28;20049;-73
2022/11/28 01:03:55;;;;;;;7.57;4.63;;;10.00;99.90;;;;;;5023676;28;20137;-73
2022/11/28 01:06:30;;;;;;;6.25;4.57;;;10.00;99.90;;;;;;5053999;28;20117;-73
2022/11/28 01:09:01;;;;;;;7.32;4.55;;;10.00;99.90;;;;;;5070068;28;20044;-73
2022/11/28 01:11:29;;;;;;;7.80;5.25;;;10.00;99.90;;;;;;5058559;28;20079;-73
2022/11/28 01:13:58;;;;;;;5.72;4.22;;;10.00;99.90;;;;;;5069540;28;20123;-73
2022/11/28 01:16:27;;;;;;;7.35;4.40;;;10.00;99.90;;;;;;5077172;28;20136;-73
2022/11/28 01:18:55;;;;;;;7.25;4.65;;;10.00;99.90;;;;;;5052255;28;20129;-73
2022/11/28 01:21:22;;;;;;;6.15;4.47;;;10.00;99.90;;;;;;5039824;28;20147;-73
2022/11/28 01:23:50;;;;;;;7.40;4.88;;;10.00;99.90;;;;;;5053701;28;20048;-73
2022/11/28 01:26:20;;;;;;;11.20;7.78;;;10.00;99.90;;;;;;5042110;28;20051;-73
2022/11/28 01:28:48;;;;;;;15.02;9.43;;;10.00;99.90;;;;;;5053291;28;20066;-73
2022/11/28 01:31:18;;;;;;;13.90;9.10;;;10.00;99.90;;;;;;5080383;28;20449;-73
2022/11/28 01:33:46;;;;;;;10.93;6.13;;;10.00;99.90;;;;;;5050283;28;20045;-73
2022/11/28 01:36:14;;;;;;;9.02;4.65;;;10.00;99.90;;;;;;5043797;28;20388;-73
2022/11/28 01:38:42;;;;;;;8.60;4.30;;;10.00;99.90;;;;;;5051687;28;20052;-73
2022/11/28 01:41:11;;;;;;;6.80;4.57;;;10.10;99.90;;;;;;5063489;28;20051;-73
2022/11/28 01:44:01;;;;;;;5.95;4.13;;;10.10;99.90;;;;;;5050053;28;20060;-73
2022/11/28 01:46:29;;;;;;;6.00;4.25;;;10.10;99.90;;;;;;5055475;28;20509;-73
2022/11/28 01:49:08;;;;;;;6.68;3.78;;;10.10;99.90;;;;;;5032936;28;20118;-72
2022/11/28 01:51:36;;;;;;;8.15;4.25;;;10.20;99.90;;;;;;5043968;28;20563;-73
2022/11/28 01:54:04;;;;;;;6.35;4.38;;;10.30;99.90;;;;;;5052056;28;20048;-73
2022/11/28 01:56:41;;;;;;;8.27;4.30;;;10.30;99.90;;;;;;5042847;28;20040;-73
2022/11/28 01:59:11;;;;;;;6.47;3.88;;;10.30;99.90;;;;;;5064172;28;20056;-73
2022/11/28 02:01:38;;;;;;;6.00;3.65;;;10.40;99.90;;;;;;5062843;28;20051;-73
2022/11/28 02:04:07;;;;;;;6.72;3.95;;;10.40;99.90;;;;;;5032155;28;20056;-73
2022/11/28 02:06:35;;;;;;;7.85;3.42;;;10.40;99.90;;;;;;5073361;28;20073;-73
2022/11/28 02:09:04;;;;;;;6.15;3.80;;;10.40;99.90;;;;;;5050888;28;20055;-73
2022/11/28 02:12:03;;;;;;;5.25;3.83;;;10.40;99.90;;;;;;5062442;28;20469;-73
2022/11/28 02:14:56;;;;;;;6.60;4.43;;;10.40;99.90;;;;;;5040891;28;20139;-73
2022/11/28 02:17:42;;;;;;;5.85;3.42;;;10.30;99.90;;;;;;5047238;28;20045;-73
2022/11/28 02:20:41;;;;;;;6.07;4.43;;;10.40;99.90;;;;;;5035259;28;20118;-73
2022/11/28 02:23:08;;;;;;;6.38;3.63;;;10.30;99.90;;;;;;5054015;28;20291;-73
2022/11/28 02:25:45;;;;;;;5.95;4.05;;;10.30;99.90;;;;;;5067883;28;20048;-73
2022/11/28 02:28:38;;;;;;;9.10;5.07;;;10.30;99.90;;;;;;5053895;28;20074;-73
2022/11/28 02:31:23;;;;;;;7.45;4.28;;;10.30;99.90;;;;;;5048092;28;20514;-73
2022/11/28 02:34:02;;;;;;;6.55;3.70;;;10.30;99.90;;;;;;5078410;28;20451;-73
2022/11/28 02:36:57;;;;;;;7.10;4.03;;;10.30;99.90;;;;;;5052180;28;20041;-73
2022/11/28 02:39:47;;;;;;;7.95;4.13;;;10.30;99.90;;;;;;5090083;28;20111;-74
2022/11/28 02:42:43;;;;;;;7.45;4.38;;;10.30;99.90;;;;;;5033599;28;20148;-73
2022/11/28 02:45:52;;;;;;;8.82;4.18;;;10.30;99.90;;;;;;5065021;28;20036;-73
2022/11/28 02:48:28;;;;;;;7.85;3.70;;;10.20;99.90;;;;;;4987456;28;20049;-74
2022/11/28 02:51:06;;;;;;;4.97;3.30;;;10.20;99.90;;;;;;4985534;28;20396;-74
2022/11/28 02:53:35;;;;;;;8.50;3.95;;;10.20;99.90;;;;;;5073255;28;20398;-73
2022/11/28 02:56:03;;;;;;;7.35;4.43;;;10.10;99.90;;;;;;5035849;28;20101;-73
2022/11/28 02:58:30;;;;;;;8.35;4.03;;;10.20;99.90;;;;;;5052391;28;20067;-74
2022/11/28 03:00:58;;;;;;;8.93;3.90;;;10.10;99.90;;;;;;5053532;28;20146;-74
2022/11/28 03:04:03;;;;;;;6.85;3.95;;;10.10;99.90;;;;;;5104535;28;20122;-73
2022/11/28 03:06:50;;;;;;;5.20;3.92;;;10.00;99.90;;;;;;5070749;28;20572;-73
2022/11/28 03:09:20;;;;;;;;;;;10.00;99.90;;;;;;5038473;28;20060;-74
2022/11/28 03:12:13;;;;;;;7.05;3.65;;;10.00;99.90;;;;;;5033365;28;19928;-74
2022/11/28 03:14:54;;;;;;;6.18;3.63;;;9.90;99.90;;;;;;5034061;28;20052;-73
2022/11/28 03:17:41;;;;;;;6.00;4.43;;;9.80;99.90;;;;;;5033905;28;20067;-73
2022/11/28 03:20:12;;;;;;;7.20;4.53;;;9.80;99.90;;;;;;5048105;28;20143;-73
2022/11/28 03:23:00;;;;;;;8.68;4.60;;;9.70;99.90;;;;;;5030560;28;20189;-73
2022/11/28 03:25:56;;;;;;;5.45;4.20;;;9.70;99.90;;;;;;5013847;28;20163;-73
2022/11/28 03:28:43;;;;;;;8.45;4.63;;;9.60;99.90;;;;;;5038576;28;20121;-74
2022/11/28 03:31:15;;;;;;;8.32;4.05;;;9.60;99.90;;;;;;5050321;28;20071;-73
2022/11/28 03:33:49;;;;;;;7.93;4.22;;;9.50;99.90;;;;;;5049677;28;20155;-73
2022/11/28 03:36:30;;;;;;;5.95;4.57;;;9.50;99.90;;;;;;5049842;28;20090;-73
2022/11/28 03:39:05;;;;;;;7.03;4.28;;;9.40;99.90;;;;;;5050302;28;20052;-73
2022/11/28 03:41:41;;;;;;;6.88;4.43;;;9.30;99.90;;;;;;5050592;28;20048;-73
2022/11/28 03:44:19;;;;;;;6.68;3.88;;;9.30;99.90;;;;;;5050148;28;20497;-73
2022/11/28 03:46:49;;;;;;;8.57;4.35;;;9.30;99.90;;;;;;5049832;28;20055;-74
2022/11/28 03:49:25;;;;;;;8.07;4.43;;;9.30;99.90;;;;;;5050223;28;20135;-73
2022/11/28 03:52:01;;;;;;;9.10;4.20;;;9.30;99.90;;;;;;5033142;28;20114;-73
2022/11/28 03:54:35;;;;;;;7.38;4.00;;;9.30;99.90;;;;;;5033403;28;20219;-73
2022/11/28 03:57:14;;;;;;;9.70;4.03;;;9.30;99.90;;;;;;5033092;28;20510;-73
2022/11/28 03:59:48;;;;;;;5.47;3.85;;;9.30;99.90;;;;;;5029498;28;20544;-73
2022/11/28 04:02:58;;;;;;;6.80;4.03;;;9.30;99.90;;;;;;5046789;28;20048;-73
2022/11/28 04:05:47;;;;;;;7.20;4.43;;;9.30;99.90;;;;;;5038704;28;20503;-74
2022/11/28 04:08:30;;;;;;;7.82;4.55;;;9.30;99.90;;;;;;5069535;28;20051;-73
2022/11/28 04:11:28;;;;;;;7.80;4.70;;;9.30;99.90;;;;;;5033272;28;20048;-73
2022/11/28 04:14:18;;;;;;;4.93;3.55;;;9.30;99.90;;;;;;5049349;28;20049;-73
2022/11/28 04:16:49;;;;;;;7.85;4.10;;;9.20;99.90;;;;;;5033385;28;20143;-73
2022/11/28 04:19:32;;;;;;;8.88;5.18;;;9.20;99.90;;;;;;5033373;28;20056;-73
2022/11/28 04:22:22;;;;;;;8.43;4.50;;;9.10;99.90;;;;;;5068322;28;20044;-73
2022/11/28 04:25:07;;;;;;;7.97;4.72;;;9.10;99.90;;;;;;5036480;28;20052;-73
2022/11/28 04:27:41;;;;;;;8.00;4.43;;;9.00;99.90;;;;;;5053642;28;20040;-73
2022/11/28 04:30:10;;;;;;;7.10;4.78;;;9.00;99.90;;;;;;5053215;28;20144;-73
2022/11/28 04:32:45;;;;;;;7.72;3.72;;;8.90;99.90;;;;;;5053150;28;20337;-74
2022/11/28 04:35:19;;;;;;;7.28;4.40;;;8.90;99.90;;;;;;5036959;28;20555;-74
2022/11/28 04:37:48;;;;;;;6.65;4.10;;;9.00;99.90;;;;;;5053303;28;20063;-74
2022/11/28 04:40:19;;;;;;;6.25;4.00;;;9.00;99.90;;;;;;5053748;28;20049;-73
2022/11/28 04:43:01;;;;;;;5.53;4.07;;;9.00;99.90;;;;;;5053527;28;20044;-73
2022/11/28 04:45:34;;;;;;;5.25;3.45;;;9.00;99.90;;;;;;5053338;28;20041;-74
2022/11/28 04:48:02;;;;;;;10.05;4.72;;;9.00;99.90;;;;;;5033423;28;20522;-74
2022/11/28 04:50:49;;;;;;;5.95;3.65;;;9.10;99.90;;;;;;5066412;28;20041;-74
2022/11/28 04:53:30;;;;;;;5.85;3.35;;;9.10;99.90;;;;;;5016507;28;20057;-73
2022/11/28 04:56:21;;;;;;;6.78;4.13;;;9.10;99.90;;;;;;5091652;28;20048;-74
2022/11/28 04:58:49;;;;;;;4.72;3.50;;;9.10;99.90;;;;;;5046032;28;20415;-74
2022/11/28 05:01:25;;;;;;;8.07;3.47;;;9.20;99.90;;;;;;5065990;28;20075;-74
2022/11/28 05:03:53;;;;;;;4.63;3.50;;;9.20;99.90;;;;;;5069182;28;20098;-74
2022/11/28 05:06:28;;;;;;;5.78;3.13;;;9.30;99.90;;;;;;5053325;28;20052;-73
2022/11/28 05:08:56;;;;;;;5.60;3.75;;;9.30;99.90;;;;;;5062007;28;20514;-74
2022/11/28 05:11:24;;;;;;;5.30;3.08;;;9.30;99.90;;;;;;5036233;28;20441;-74
2022/11/28 05:13:51;;;;;;;7.50;3.33;;;9.30;99.90;;;;;;5070403;28;20041;-74
2022/11/28 05:16:19;;;;;;;5.60;3.75;;;9.30;99.90;;;;;;5052740;28;20074;-74
2022/11/28 05:18:47;;;;;;;7.90;3.25;;;9.40;99.90;;;;;;5070364;28;20061;-74
2022/11/28 05:21:15;;;;;;;6.65;3.20;;;9.40;99.90;;;;;;5036056;28;20113;-74
2022/11/28 05:23:44;;;;;;;5.20;3.25;;;9.40;99.90;;;;;;5035910;28;20486;-74
2022/11/28 05:26:18;;;;;;;6.30;3.80;;;9.40;99.90;;;;;;5052273;28;20044;-74
2022/11/28 05:28:48;;;;;;;6.55;3.78;;;9.40;99.90;;;;;;5035057;28;20059;-74
2022/11/28 05:31:19;;;;;;;5.03;3.25;;;9.50;99.90;;;;;;5035791;28;20081;-74
2022/11/28 05:33:47;;;;;;;5.55;3.35;;;9.50;99.90;;;;;;5035405;28;20084;-74
2022/11/28 05:36:15;;;;;;;6.97;3.17;;;9.50;99.90;;;;;;5052528;28;20059;-74
2022/11/28 05:38:44;;;;;;;9.82;5.05;;;9.50;99.90;;;;;;5052529;28;20056;-74
2022/11/28 05:41:29;;;;;;;5.82;4.07;;;9.50;99.90;;;;;;5052341;28;20040;-73
2022/11/28 05:43:58;;;;;;;6.45;3.75;;;9.50;99.90;;;;;;5051969;28;20368;-74
2022/11/28 05:46:27;;;;;;;6.28;3.63;;;9.50;99.90;;;;;;5052315;28;20036;-74
2022/11/28 05:48:54;;;;;;;5.47;3.47;;;9.50;99.90;;;;;;5069852;28;20395;-74
2022/11/28 05:51:22;;;;;;;6.90;4.50;;;9.50;99.90;;;;;;5051388;28;20052;-73
2022/11/28 05:53:50;;;;;;;5.57;4.03;;;9.50;99.90;;;;;;5051862;28;20064;-74
2022/11/28 05:56:19;;;;;;;5.50;3.17;;;9.50;99.90;;;;;;5035111;28;20129;-74
2022/11/28 05:58:46;;;;;;;7.43;3.72;;;9.50;99.90;;;;;;5051418;28;20064;-74
2022/11/28 06:01:16;;;;;;;6.00;3.58;;;9.70;99.90;;;;;;5035195;28;20060;-74
2022/11/28 06:03:44;;;;;;;7.53;4.43;;;10.10;99.90;;;;;;5035216;28;20159;-74
2022/11/28 06:06:15;;;;;;;7.07;4.18;;;10.50;99.90;;;;;;5068157;28;20418;-74
2022/11/28 06:08:43;;;;;;;6.63;4.72;;;11.00;99.90;;;;;;5069618;28;20067;-74
2022/11/28 06:11:13;;;;;;;5.10;3.72;;;11.50;99.90;;;;;;5051766;28;20064;-74
2022/11/28 06:13:42;;;;;;;6.75;5.18;;;12.00;99.90;;;;;;5035350;28;20060;-74
2022/11/28 06:16:12;;;;;;;8.18;4.95;;;12.60;99.90;;;;;;5069391;28;20056;-73
2022/11/28 06:18:41;;;;;;;6.85;3.90;;;13.20;99.90;;;;;;5051426;28;20136;-73
2022/11/28 06:21:11;;;;;;;8.70;4.13;;;13.70;99.90;;;;;;5069185;28;20044;-73
2022/11/28 06:23:39;;;;;;;5.13;4.43;;;14.20;99.90;;;;;;5035079;28;20114;-73
2022/11/28 06:26:12;;;;;;;8.18;3.97;;;14.60;99.90;;;;;;5069157;28;20370;-73
2022/11/28 06:28:41;;;;;;;7.82;4.75;;;15.20;99.90;;;;;;5034809;28;20051;-73
2022/11/28 06:31:14;;;;;;;6.38;4.70;;;15.70;99.90;;;;;;5034692;28;20044;-73
2022/11/28 06:33:42;;;;;;;7.35;4.53;;;16.20;99.90;;;;;;5051108;28;20040;-73
2022/11/28 06:36:11;;;;;;;8.05;4.75;;;16.70;99.40;;;;;;5050889;28;20052;-74
2022/11/28 06:38:39;;;;;;;9.77;4.97;;;17.20;98.50;;;;;;5068571;28;20037;-74
2022/11/28 06:41:14;;;;;;;8.23;5.00;;;17.70;98.00;;;;;;5050828;28;20421;-73
2022/11/28 06:43:41;;;;;;;9.02;4.30;;;17.90;97.30;;;;;;5050951;28;20040;-73
2022/11/28 06:46:15;;;;;;;7.53;4.68;;;18.00;96.80;;;;;;5035488;28;20056;-73
2022/11/28 06:48:43;;;;;;;6.10;4.30;;;17.80;97.10;;;;;;5033707;28;20158;-73
2022/11/28 06:51:12;;;;;;;5.60;3.83;;;18.10;97.00;;;;;;5051113;28;20159;-74
2022/11/28 06:53:40;;;;;;;8.10;4.60;;;18.60;96.60;;;;;;5070138;28;20050;-73
2022/11/28 06:56:10;;;;;;;6.13;4.50;;;18.90;96.00;;;;;;5050802;28;20063;-73
2022/11/28 06:58:38;;;;;;;13.80;3.40;;;18.70;95.70;;;;;;5046978;28;20067;-72
2022/11/28 07:01:12;;;;;;;5.05;3.78;;;17.90;96.40;;;;;;5017152;28;20053;-73
2022/11/28 07:03:40;;;;;;;5.40;4.10;;;17.40;97.50;;;;;;5068479;28;20044;-73
2022/11/28 07:06:08;;;;;;;6.28;4.13;;;17.30;97.40;;;;;;5032117;28;20050;-74
2022/11/28 07:08:36;;;;;;;6.32;4.78;;;16.80;97.70;;;;;;5065501;28;20157;-74
2022/11/28 07:11:16;;;;;;;8.68;6.47;;;16.10;98.30;;;;;;5052156;28;20048;-73
2022/11/28 07:13:46;;;;;;;8.20;5.22;;;15.30;99.40;;;;;;5050407;28;20040;-73
2022/11/28 07:16:20;;;;;;;6.90;4.47;;;14.60;99.90;;;;;;5041387;28;20039;-74
2022/11/28 07:18:48;;;;;;;6.30;3.72;;;13.90;99.90;;;;;;5016485;28;20039;-74
2022/11/28 07:21:16;;;;;;;6.43;4.07;;;13.40;99.90;;;;;;5060654;28;20129;-73
2022/11/28 07:23:44;;;;;;;7.82;4.90;;;13.30;99.90;;;;;;5067301;28;20208;-73
2022/11/28 07:26:14;;;;;;;7.22;5.40;;;13.20;99.90;;;;;;5056236;28;20067;-73
2022/11/28 07:28:42;;;;;;;10.30;6.72;;;13.80;99.90;;;;;;5053391;28;20055;-74
2022/11/28 07:31:32;;;;;;;9.65;6.65;;;15.00;99.90;;;;;;5079134;28;20379;-74
2022/11/28 07:34:02;;;;;;;9.55;6.43;;;16.40;99.90;;;;;;5047663;28;20135;-74
2022/11/28 07:36:30;;;;;;;8.50;5.20;;;17.30;99.10;;;;;;5079107;28;20144;-74
2022/11/28 07:39:00;;;;;;;9.45;5.63;;;18.00;98.10;;;;;;5047493;28;20414;-73
2022/11/28 07:41:28;;;;;;;6.70;5.22;;;18.40;97.50;;;;;;5060564;28;20511;-75
2022/11/28 07:44:01;;;;;;;6.53;4.45;;;18.80;97.20;;;;;;5040198;28;20060;-75
2022/11/28 07:46:31;;;;;;;6.68;3.88;;;19.00;96.60;;;;;;5051538;28;20441;-75
2022/11/28 07:48:59;;;;;;;6.90;3.72;;;19.30;96.10;;;;;;5072475;28;20471;-74
2022/11/28 07:51:30;;;;;;;6.00;3.17;;;19.40;95.70;;;;;;5072234;28;20045;-74
2022/11/28 07:53:59;;;;;;;8.52;4.50;;;19.50;95.60;;;;;;5020639;28;20588;-75
2022/11/28 07:56:29;;;;;;;4.90;4.10;;;19.60;95.50;;;;;;5047206;28;20045;-74
2022/11/28 07:59:06;;;;;;;6.10;3.83;;;19.70;95.50;;;;;;5034759;28;20218;-75
2022/11/28 08:01:34;;;;;;;7.47;4.80;;;19.80;95.40;;;;;;5037058;28;20194;-75
2022/11/28 08:04:04;;;;;;;7.93;4.25;;;19.80;95.50;;;;;;5070392;28;20033;-75
2022/11/28 08:06:36;;;;;;;7.22;4.53;;;19.90;95.40;;;;;;5021851;28;20053;-74
2022/11/28 08:09:05;;;;;;;8.65;4.55;;;19.90;95.30;;;;;;5045448;28;20060;-75
2022/11/28 08:11:33;;;;;;;8.18;5.15;;;19.80;95.20;;;;;;5019430;28;20041;-75
2022/11/28 08:14:03;;;;;;;8.98;4.60;;;19.60;95.20;;;;;;5025628;28;20138;-75
2022/11/28 08:16:31;;;;;;;19.60;4.82;;;19.40;95.50;;;;;;5035806;28;20061;-74
2022/11/28 08:19:02;;;;;;;8.23;4.03;;;19.30;95.90;;;;;;5037425;28;20084;-74
2022/11/28 08:21:32;;;;;;;7.28;4.88;;;19.00;96.10;;;;;;5045887;28;20048;-74
2022/11/28 08:24:00;;;;;;;8.05;4.60;;;18.80;96.30;;;;;;5065435;28;20063;-74
2022/11/28 08:26:31;;;;;;;10.23;5.22;;;18.60;96.80;;;;;;5058124;28;20113;-74
2022/11/28 08:28:59;;;;;;;6.80;4.38;;;18.40;97.00;;;;;;5046819;28;20465;-74
2022/11/28 08:31:30;;;;;;;9.18;6.50;;;18.20;97.30;;;;;;5053833;28;20045;-74
2022/11/28 08:34:00;;;;;;;10.18;6.32;;;18.10;97.60;;;;;;5041166;28;20450;-73
2022/11/28 08:36:28;;;;;;;10.77;5.35;;;18.00;97.90;;;;;;5035322;28;20091;-73
2022/11/28 08:38:58;;;;;;;9.50;5.68;;;18.00;97.90;;;;;;5045819;28;20064;-73
2022/11/28 08:41:45;;;;;;;8.32;5.45;;;18.00;98.20;;;;;;5031951;28;20052;-74
2022/11/28 08:44:13;;;;;;;8.77;6.22;;;18.00;98.10;;;;;;5031994;28;20048;-74
2022/11/28 08:46:40;;;;;;;10.57;6.05;;;17.90;98.30;;;;;;5047718;28;20056;-74
2022/11/28 08:49:08;;;;;;;10.43;6.72;;;17.90;98.10;;;;;;5060305;28;20051;-73
2022/11/28 08:51:35;;;;;;;12.98;8.02;;;17.90;97.90;;;;;;5048492;28;20048;-73
2022/11/28 08:54:03;;;;;;;7.78;5.47;;;18.00;97.90;;;;;;5031607;28;20061;-73
2022/11/28 08:56:31;;;;;;;8.85;5.63;;;18.00;98.00;;;;;;5032045;28;20049;-73
2022/11/28 08:58:58;;;;;;;9.13;5.43;;;18.10;97.60;;;;;;5035526;28;20362;-73
2022/11/28 09:01:27;;;;;;;6.22;4.35;;;18.20;97.70;;;;;;5099377;28;20155;-73
2022/11/28 09:03:55;;;;;;;6.45;4.25;;;18.40;97.10;;;;;;5066564;28;20114;-74
2022/11/28 09:06:23;;;;;;;5.57;3.30;;;18.50;96.40;;;;;;5016456;28;20477;-73
2022/11/28 09:08:52;;;;;;;5.00;2.83;;;18.50;94.90;;;;;;5047801;28;20064;-73
2022/11/28 09:11:21;;;;;;;5.05;3.28;;;18.60;94.60;;;;;;5034313;28;20089;-73
2022/11/28 09:13:49;;;;;;;3.92;3.50;;;18.60;94.70;;;;;;5051859;28;20059;-73
2022/11/28 09:16:16;;;;;;;4.18;3.08;;;18.70;94.30;;;;;;5041061;28;20503;-73
2022/11/28 09:18:44;;;;;;;3.85;2.65;;;18.90;94.60;;;;;;5031969;28;20045;-73
2022/11/28 09:21:13;;;;;;;3.88;2.92;;;18.60;94.50;;;;;;5012169;28;20250;-74
2022/11/28 09:23:43;;;;;;;4.25;2.88;;;18.40;94.70;;;;;;5028609;28;20575;-73
2022/11/28 09:26:13;;;;;;;4.70;3.20;;;18.40;94.80;;;;;;5047478;28;20049;-73
2022/11/28 09:28:41;;;;;;;3.15;2.33;;;18.50;94.20;;;;;;5048504;28;20194;-73
2022/11/28 09:31:11;;;;;;;4.05;2.72;;;18.60;93.90;;;;;;5013815;28;20049;-73
2022/11/28 09:33:39;;;;;;;7.13;2.45;;;18.70;94.10;;;;;;5066897;28;20067;-72
2022/11/28 09:36:08;;;;;;;4.05;2.33;;;18.90;94.30;;;;;;5050285;28;20474;-71
2022/11/28 09:38:37;;;;;;;3.80;2.53;;;19.10;93.90;;;;;;5033915;28;20063;-72
2022/11/28 09:41:28;;;;;;;3.47;2.53;;;19.30;94.20;;;;;;5050383;28;20040;-71
2022/11/28 09:44:17;;;;;;;4.72;2.50;;;19.50;94.20;;;;;;5029921;28;20131;-71
2022/11/28 09:46:47;;;;;;;4.25;2.60;;;19.70;94.10;;;;;;5048343;28;20767;-72
2022/11/28 09:49:57;;;;;;;3.55;2.10;;;19.70;93.80;;;;;;5046503;28;20136;-72
2022/11/28 09:53:06;;;;;;;2.85;1.90;;;19.30;93.60;;;;;;5045750;28;20540;-72
2022/11/28 09:55:59;;;;;;;2.95;1.77;;;19.20;93.90;;;;;;5050858;28;20066;-72
2022/11/28 09:58:54;;;;;;;3.97;2.45;;;19.30;94.20;;;;;;5068670;28;20048;-72
2022/11/28 10:01:50;;;;;;;3.88;2.30;;;19.00;94.30;;;;;;5052034;28;20155;-71
2022/11/28 10:04:41;;;;;;;4.10;2.00;;;19.00;94.10;;;;;;5035233;28;20521;-72
2022/11/28 10:07:08;;;;;;;3.60;1.95;;;18.70;94.30;;;;;;5043354;28;20052;-71
2022/11/28 10:09:53;;;;;;;10.20;2.15;;;18.80;94.40;;;;;;5069867;28;20341;-72
2022/11/28 10:12:41;;;;;;;4.22;2.58;;;18.70;94.50;;;;;;5035074;28;20113;-71
2022/11/28 10:15:22;;;;;;;4.15;2.80;;;18.60;94.70;;;;;;5034752;28;20044;-71
2022/11/28 10:18:21;;;;;;;4.05;2.60;;;18.90;94.40;;;;;;5035399;28;20044;-72
2022/11/28 10:20:53;;;;;;;4.38;2.58;;;18.90;94.50;;;;;;5051074;28;20558;-72
2022/11/28 10:23:30;;;;;;;9.45;3.25;;;18.80;94.60;;;;;;5051500;28;20044;-71
2022/11/28 10:26:07;;;;;;;4.63;2.95;;;18.50;94.40;;;;;;5035259;28;20143;-71
2022/11/28 10:28:38;;;;;;;5.07;2.88;;;18.30;94.60;;;;;;5051482;28;20041;-71
2022/11/28 10:31:28;;;;;;;4.22;2.85;;;18.30;95.10;;;;;;5034269;28;20505;-71
2022/11/28 10:34:20;;;;;;;3.22;2.30;;;18.40;94.90;;;;;;5047457;28;20053;-72
2022/11/28 10:37:02;;;;;;;4.50;2.92;;;18.20;94.60;;;;;;5014566;28;20125;-71
2022/11/28 10:39:30;;;;;;;4.03;2.85;;;18.00;94.70;;;;;;5022184;28;20134;-70
2022/11/28 10:42:10;;;;;;;4.13;2.65;;;17.90;95.00;;;;;;5058644;28;20110;-73
2022/11/28 10:44:51;;;;;;;8.07;2.65;;;17.90;95.20;;;;;;5013526;28;20043;-73
2022/11/28 10:47:37;;;;;;;5.88;3.25;;;17.90;94.70;;;;;;5063108;28;20075;-73
2022/11/28 10:50:23;;;;;;;15.95;3.70;;;18.00;94.50;;;;;;5063262;28;20060;-72
2022/11/28 10:53:11;;;;;;;6.28;2.55;;;17.80;94.40;;;;;;5058787;28;20048;-70
2022/11/28 10:55:59;;;;;;;8.52;4.00;;;17.80;94.20;;;;;;5026808;28;20056;-70
2022/11/28 10:58:38;;;;;;;6.20;3.20;;;17.90;94.30;;;;;;5043430;28;20056;-71
2022/11/28 11:01:05;;;;;;;3.50;2.42;;;17.90;94.10;;;;;;5058953;28;20131;-70
2022/11/28 11:03:37;;;;;;;5.50;3.15;;;17.70;94.00;;;;;;5046067;28;20122;-71
2022/11/28 11:06:06;;;;;;;3.97;2.63;;;17.90;93.70;;;;;;5045923;28;20140;-71
2022/11/28 11:08:36;;;;;;;3.38;2.60;;;18.00;93.80;;;;;;5046003;28;20499;-71
2022/11/28 11:11:19;;;;;;;3.50;2.30;;;18.00;93.40;;;;;;5046556;28;20049;-71
2022/11/28 11:14:06;;;;;;;3.08;2.20;;;17.90;93.30;;;;;;5030734;28;20110;-71
2022/11/28 11:16:53;;;;;;;9.25;4.60;;;17.90;93.50;;;;;;5030372;28;20060;-71
2022/11/28 11:19:30;;;;;;;16.60;4.53;;;17.90;93.50;;;;;;5047210;28;20053;-71
2022/11/28 11:22:03;;;;;;;10.55;3.42;;;18.10;93.50;;;;;;5046490;28;20040;-71
2022/11/28 11:24:31;;;;;;;8.38;3.10;;;18.20;93.40;;;;;;5048317;28;20084;-70
2022/11/28 11:27:05;;;;;;;5.13;2.40;;;18.30;93.30;;;;;;5048411;28;20043;-71
2022/11/28 11:29:36;;;;;;;3.20;2.20;;;18.30;93.40;;;;;;5047137;28;20151;-71
2022/11/28 11:32:15;;;;;;;3.35;2.10;;;18.30;93.20;;;;;;5046275;28;20124;-71
2022/11/28 11:34:44;;;;;;;4.60;2.10;;;17.90;92.80;;;;;;5047380;28;20049;-71
2022/11/28 11:37:32;;;;;;;5.45;2.88;;;17.90;93.10;;;;;;5046660;28;20037;-71
2022/11/28 11:40:00;;;;;;;3.83;2.40;;;17.70;93.30;;;;;;5046904;28;20049;-71
2022/11/28 11:42:30;;;;;;;5.93;2.60;;;17.80;93.20;;;;;;5046989;28;20120;-70
2022/11/28 11:45:32;;;;;;;5.20;2.28;;;17.90;93.70;;;;;;5046912;28;20053;-70
2022/11/28 11:48:00;;;;;;;3.63;2.10;;;17.90;92.90;;;;;;5047898;28;20048;-70
2022/11/28 11:50:30;;;;;;;4.80;2.70;;;17.50;93.20;;;;;;5046274;28;20084;-71
2022/11/28 11:53:10;;;;;;;6.63;3.10;;;17.50;93.50;;;;;;5035812;28;20131;-70
2022/11/28 11:55:51;;;;;;;15.50;3.65;;;17.50;93.70;;;;;;5059631;28;20048;-71
2022/11/28 11:58:26;;;;;;;35.72;6.72;;;17.60;93.70;;;;;;5026517;28;20071;-70
2022/11/28 12:00:58;;;;;;;15.10;4.43;;;17.80;93.90;;;;;;5059543;28;20080;-70
2022/11/28 12:03:59;;;;;;;5.10;2.28;;;17.90;93.70;;;;;;5056388;28;20045;-70
2022/11/28 12:06:45;;;;;;;4.78;2.60;;;18.00;93.60;;;;;;5025988;28;20041;-70
2022/11/28 12:09:48;;;;;;;4.80;2.92;;;17.90;93.70;;;;;;5029965;28;20055;-71
2022/11/28 12:12:27;;;;;;;4.95;2.58;;;18.00;93.80;;;;;;5062927;28;20071;-71
2022/11/28 12:14:56;;;;;;;5.03;1.98;;;18.00;93.90;;;;;;5046588;28;20055;-71
2022/11/28 12:17:41;;;;;;;4.70;2.70;;;17.80;93.50;;;;;;5046487;28;20457;-71
2022/11/28 12:20:51;;;;;;;4.63;2.75;;;17.50;93.60;;;;;;5047953;28;20099;-71
2022/11/28 12:23:41;;;;;;;10.18;3.65;;;17.20;94.00;;;;;;5046318;28;20049;-71
2022/11/28 12:26:17;;;;;;;4.50;2.90;;;17.20;93.90;;;;;;5047584;28;20037;-70
2022/11/28 12:29:13;;;;;;;4.13;3.13;;;17.10;94.10;;;;;;5046334;28;20410;-70
2022/11/28 12:32:16;;;;;;;5.00;2.58;;;17.00;94.30;;;;;;5046144;28;20041;-70
2022/11/28 12:34:52;;;;;;;4.03;2.53;;;16.70;94.80;;;;;;5042488;28;20041;-70
2022/11/28 12:37:49;;;;;;;2.88;2.38;;;16.80;94.80;;;;;;5073554;28;20049;-70
2022/11/28 12:41:06;;;;;;;3.75;2.38;;;16.80;94.50;;;;;;5053872;28;20104;-70
2022/11/28 12:43:55;;;;;;;7.72;4.05;;;16.70;94.70;;;;;;5029149;28;20053;-70
2022/11/28 12:46:51;;;;;;;9.18;5.38;;;16.80;94.90;;;;;;5050754;28;20060;-71
2022/11/28 12:49:21;;;;;;;45.58;33.00;;;16.80;94.40;;;;;;5042462;28;20437;-70
2022/11/28 12:51:58;;;;;;;242.65;165.20;;;17.00;94.30;;;;;;5050202;28;20064;-69
2022/11/28 12:54:31;;;;;;;234.18;146.95;;;17.00;94.00;;;;;;5027386;28;20045;-70
2022/11/28 12:57:05;;;;;;;125.55;92.18;;;17.00;93.90;;;;;;5064549;28;20049;-69
2022/11/28 12:59:39;;;;;;;30.92;17.85;;;16.80;93.80;;;;;;5042333;28;20056;-70
2022/11/28 13:02:45;;;;;;;7.05;4.60;;;16.70;94.00;;;;;;5031573;28;20152;-70
2022/11/28 13:05:28;;;;;;;5.20;3.45;;;16.70;94.20;;;;;;5022987;28;20056;-70
2022/11/28 13:08:16;;;;;;;10.45;3.47;;;16.80;94.20;;;;;;4982586;28;20357;-69
2022/11/28 13:11:09;;;;;;;18.42;13.43;;;16.70;94.40;;;;;;5026103;28;20132;-70
2022/11/28 13:13:48;;;;;;;10.00;6.18;;;16.70;93.90;;;;;;5020884;28;20121;-70
2022/11/28 13:16:30;;;;;;;191.48;120.18;;;16.70;94.00;;;;;;5014971;28;20045;-70
2022/11/28 13:19:16;;;;;;;75.05;43.28;;;16.60;94.10;;;;;;5026070;28;20072;-70
2022/11/28 13:22:08;;;;;;;68.22;40.72;;;16.30;94.20;;;;;;5032472;28;20038;-70
2022/11/28 13:24:40;;;;;;;40.05;27.48;;;16.10;94.70;;;;;;5027547;28;20523;-70
2022/11/28 13:27:26;;;;;;;20.45;11.23;;;16.20;94.50;;;;;;5021789;28;20156;-70
2022/11/28 13:30:21;;;;;;;21.27;11.35;;;16.20;94.50;;;;;;5021159;28;20120;-70
2022/11/28 13:33:04;;;;;;;22.83;9.70;;;16.20;94.30;;;;;;5024089;28;20046;-70